sensor_id;sensor_type;location;lat;lon;timestamp;pressure;altitude;pressure_sealevel;temperature;humidity
12757;BME280;31601;48.042;12.240;2022-12-29T00:01:19;96129.28;;;1.42;72.15
12757;BME280;31601;48.042;12.240;2022-12-29T00:03:45;96133.50;;;1.33;72.25
12757;BME280;31601;48.042;12.240;2022-12-29T00:06:12;96137.91;;;1.21;72.83
12757;BME280;31601;48.042;12.240;2022-12-29T00:08:39;96125.94;;;1.20;72.60
12757;BME280;31601;48.042;12.240;2022-12-29T00:11:06;96127.31;;;1.24;72.52
12757;BME280;31601;48.042;12.240;2022-12-29T00:13:37;96113.34;;;1.27;72.48
12757;BME280;31601;48.042;12.240;2022-12-29T00:16:21;96111.66;;;1.16;72.24
12757;BME280;31601;48.042;12.240;2022-12-29T00:18:47;96121.09;;;1.06;71.88
12757;BME280;31601;48.042;12.240;2022-12-29T00:21:14;96132.50;;;1.03;72.28
12757;BME280;31601;48.042;12.240;2022-12-29T00:23:59;96112.09;;;1.00;72.46
12757;BME280;31601;48.042;12.240;2022-12-29T00:26:45;96127.78;;;0.87;73.00
12757;BME280;31601;48.042;12.240;2022-12-29T00:29:30;96124.19;;;1.00;73.11
12757;BME280;31601;48.042;12.240;2022-12-29T00:32:14;96126.00;;;1.09;72.69
12757;BME280;31601;48.042;12.240;2022-12-29T00:34:58;96107.81;;;1.11;72.54
12757;BME280;31601;48.042;12.240;2022-12-29T00:37:39;96110.13;;;1.14;72.44
12757;BME280;31601;48.042;12.240;2022-12-29T00:40:25;96113.00;;;1.20;72.21
12757;BME280;31601;48.042;12.240;2022-12-29T00:43:09;96118.31;;;1.19;72.21
12757;BME280;31601;48.042;12.240;2022-12-29T00:45:55;96127.91;;;1.07;72.41
12757;BME280;31601;48.042;12.240;2022-12-29T00:48:21;96114.50;;;1.13;72.22
12757;BME280;31601;48.042;12.240;2022-12-29T00:51:02;96120.03;;;1.09;72.21
12757;BME280;31601;48.042;12.240;2022-12-29T00:53:28;96098.03;;;1.14;72.18
12757;BME280;31601;48.042;12.240;2022-12-29T00:55:55;96102.09;;;1.07;72.51
12757;BME280;31601;48.042;12.240;2022-12-29T00:58:21;96091.88;;;1.05;72.38
12757;BME280;31601;48.042;12.240;2022-12-29T01:00:48;96109.88;;;0.96;72.90
12757;BME280;31601;48.042;12.240;2022-12-29T01:03:15;96102.78;;;0.88;72.74
12757;BME280;31601;48.042;12.240;2022-12-29T01:05:42;96105.22;;;0.89;72.89
12757;BME280;31601;48.042;12.240;2022-12-29T01:08:09;96104.28;;;0.91;72.73
12757;BME280;31601;48.042;12.240;2022-12-29T01:10:35;96110.97;;;0.93;72.72
12757;BME280;31601;48.042;12.240;2022-12-29T01:13:01;96095.47;;;0.93;72.72
12757;BME280;31601;48.042;12.240;2022-12-29T01:15:27;96110.47;;;0.78;73.23
12757;BME280;31601;48.042;12.240;2022-12-29T01:17:54;96088.53;;;0.94;72.86
12757;BME280;31601;48.042;12.240;2022-12-29T01:20:21;96111.16;;;0.80;73.40
12757;BME280;31601;48.042;12.240;2022-12-29T01:22:48;96104.16;;;0.71;73.38
12757;BME280;31601;48.042;12.240;2022-12-29T01:25:14;96093.94;;;0.69;73.22
12757;BME280;31601;48.042;12.240;2022-12-29T01:27:41;96107.88;;;0.57;73.09
12757;BME280;31601;48.042;12.240;2022-12-29T01:30:08;96111.22;;;0.69;72.75
12757;BME280;31601;48.042;12.240;2022-12-29T01:32:35;96115.88;;;0.75;72.54
12757;BME280;31601;48.042;12.240;2022-12-29T01:35:01;96123.63;;;0.75;72.54
12757;BME280;31601;48.042;12.240;2022-12-29T01:37:29;96117.31;;;0.68;72.63
12757;BME280;31601;48.042;12.240;2022-12-29T01:39:56;96109.44;;;0.69;72.42
12757;BME280;31601;48.042;12.240;2022-12-29T01:42:24;96122.97;;;0.62;72.83
12757;BME280;31601;48.042;12.240;2022-12-29T01:44:53;96107.94;;;0.67;72.61
12757;BME280;31601;48.042;12.240;2022-12-29T01:47:33;96100.84;;;0.59;72.66
12757;BME280;31601;48.042;12.240;2022-12-29T01:50:05;96108.69;;;0.58;72.92
12757;BME280;31601;48.042;12.240;2022-12-29T01:52:40;96095.66;;;0.59;72.87
12757;BME280;31601;48.042;12.240;2022-12-29T01:55:09;96096.22;;;0.63;72.60
12757;BME280;31601;48.042;12.240;2022-12-29T01:57:39;96107.25;;;0.65;72.43
12757;BME280;31601;48.042;12.240;2022-12-29T02:00:09;96110.31;;;0.59;72.56
12757;BME280;31601;48.042;12.240;2022-12-29T02:02:36;96104.66;;;0.65;72.58
12757;BME280;31601;48.042;12.240;2022-12-29T02:05:11;96097.50;;;0.68;72.61
12757;BME280;31601;48.042;12.240;2022-12-29T02:07:42;96100.50;;;0.52;72.73
12757;BME280;31601;48.042;12.240;2022-12-29T02:10:09;96097.41;;;0.59;72.58
12757;BME280;31601;48.042;12.240;2022-12-29T02:12:35;96084.50;;;0.59;72.46
12757;BME280;31601;48.042;12.240;2022-12-29T02:15:04;96079.59;;;0.56;72.33
12757;BME280;31601;48.042;12.240;2022-12-29T02:17:41;96077.50;;;0.49;72.46
12757;BME280;31601;48.042;12.240;2022-12-29T02:20:42;96078.34;;;0.50;72.60
12757;BME280;31601;48.042;12.240;2022-12-29T02:23:30;96074.06;;;0.39;72.75
12757;BME280;31601;48.042;12.240;2022-12-29T02:29:04;96078.00;;;0.43;72.54
12757;BME280;31601;48.042;12.240;2022-12-29T02:31:41;96073.56;;;0.45;72.48
12757;BME280;31601;48.042;12.240;2022-12-29T02:34:19;96079.66;;;0.44;72.48
12757;BME280;31601;48.042;12.240;2022-12-29T02:36:56;96070.75;;;0.37;72.48
12757;BME280;31601;48.042;12.240;2022-12-29T02:39:32;96072.22;;;0.30;72.75
12757;BME280;31601;48.042;12.240;2022-12-29T02:42:07;96070.56;;;0.29;72.84
12757;BME280;31601;48.042;12.240;2022-12-29T02:44:47;96066.81;;;0.33;72.76
12757;BME280;31601;48.042;12.240;2022-12-29T02:47:22;96068.69;;;0.31;72.30
12757;BME280;31601;48.042;12.240;2022-12-29T02:49:57;96064.47;;;0.30;72.56
12757;BME280;31601;48.042;12.240;2022-12-29T02:52:30;96067.06;;;0.30;72.36
12757;BME280;31601;48.042;12.240;2022-12-29T02:54:58;96072.97;;;0.21;72.29
12757;BME280;31601;48.042;12.240;2022-12-29T02:57:29;96067.56;;;0.24;72.20
12757;BME280;31601;48.042;12.240;2022-12-29T02:59:58;96059.09;;;0.22;72.25
12757;BME280;31601;48.042;12.240;2022-12-29T03:02:39;96065.16;;;-0.01;72.81
12757;BME280;31601;48.042;12.240;2022-12-29T03:05:19;96062.50;;;-0.10;72.95
12757;BME280;31601;48.042;12.240;2022-12-29T03:07:55;96060.34;;;0.06;72.97
12757;BME280;31601;48.042;12.240;2022-12-29T03:10:31;96064.56;;;0.07;72.90
12757;BME280;31601;48.042;12.240;2022-12-29T03:13:05;96047.06;;;0.11;73.03
12757;BME280;31601;48.042;12.240;2022-12-29T03:15:54;96043.50;;;0.23;73.13
12757;BME280;31601;48.042;12.240;2022-12-29T03:18:39;96040.53;;;0.28;73.29
12757;BME280;31601;48.042;12.240;2022-12-29T03:21:11;96059.50;;;0.38;73.05
12757;BME280;31601;48.042;12.240;2022-12-29T03:23:41;96054.22;;;0.40;73.58
12757;BME280;31601;48.042;12.240;2022-12-29T03:26:11;96053.34;;;0.50;73.18
12757;BME280;31601;48.042;12.240;2022-12-29T03:28:41;96052.72;;;0.58;73.25
12757;BME280;31601;48.042;12.240;2022-12-29T03:31:11;96049.94;;;0.71;73.00
12757;BME280;31601;48.042;12.240;2022-12-29T03:33:41;96042.75;;;0.53;73.31
12757;BME280;31601;48.042;12.240;2022-12-29T03:36:13;96048.50;;;0.57;72.93
12757;BME280;31601;48.042;12.240;2022-12-29T03:38:45;96055.34;;;0.68;73.31
12757;BME280;31601;48.042;12.240;2022-12-29T03:41:17;96063.81;;;0.70;73.28
12757;BME280;31601;48.042;12.240;2022-12-29T03:43:45;96042.91;;;0.73;73.09
12757;BME280;31601;48.042;12.240;2022-12-29T03:46:11;96047.09;;;0.74;73.07
12757;BME280;31601;48.042;12.240;2022-12-29T03:48:39;96056.78;;;0.82;72.84
12757;BME280;31601;48.042;12.240;2022-12-29T03:51:06;96060.47;;;0.79;72.85
12757;BME280;31601;48.042;12.240;2022-12-29T03:53:32;96063.59;;;0.83;72.66
12757;BME280;31601;48.042;12.240;2022-12-29T03:55:58;96061.91;;;0.72;72.51
12757;BME280;31601;48.042;12.240;2022-12-29T03:58:25;96058.66;;;0.70;72.25
12757;BME280;31601;48.042;12.240;2022-12-29T04:00:51;96078.34;;;0.71;72.28
12757;BME280;31601;48.042;12.240;2022-12-29T04:03:18;96063.03;;;0.58;72.36
12757;BME280;31601;48.042;12.240;2022-12-29T04:05:45;96059.66;;;0.58;72.15
12757;BME280;31601;48.042;12.240;2022-12-29T04:08:12;96063.34;;;0.44;72.21
12757;BME280;31601;48.042;12.240;2022-12-29T04:10:38;96056.06;;;0.49;72.26
12757;BME280;31601;48.042;12.240;2022-12-29T04:13:05;96061.22;;;0.49;72.38
12757;BME280;31601;48.042;12.240;2022-12-29T04:15:31;96068.19;;;0.37;72.91
12757;BME280;31601;48.042;12.240;2022-12-29T04:17:58;96079.13;;;0.29;73.08
12757;BME280;31601;48.042;12.240;2022-12-29T04:20:24;96058.09;;;0.13;73.13
12757;BME280;31601;48.042;12.240;2022-12-29T04:23:10;96056.69;;;0.41;73.21
12757;BME280;31601;48.042;12.240;2022-12-29T04:25:36;96064.22;;;0.54;73.53
12757;BME280;31601;48.042;12.240;2022-12-29T04:28:03;96059.88;;;0.76;73.42
12757;BME280;31601;48.042;12.240;2022-12-29T04:30:29;96062.59;;;0.74;73.76
12757;BME280;31601;48.042;12.240;2022-12-29T04:32:55;96057.66;;;0.92;73.46
12757;BME280;31601;48.042;12.240;2022-12-29T04:35:22;96055.84;;;1.04;73.26
12757;BME280;31601;48.042;12.240;2022-12-29T04:37:48;96054.66;;;1.18;72.82
12757;BME280;31601;48.042;12.240;2022-12-29T04:40:16;96036.84;;;1.15;72.90
12757;BME280;31601;48.042;12.240;2022-12-29T04:42:43;96051.56;;;0.51;74.55
12757;BME280;31601;48.042;12.240;2022-12-29T04:45:10;96058.72;;;1.11;73.57
12757;BME280;31601;48.042;12.240;2022-12-29T04:47:36;96057.81;;;1.21;72.94
12757;BME280;31601;48.042;12.240;2022-12-29T04:50:03;96045.22;;;1.38;72.92
12757;BME280;31601;48.042;12.240;2022-12-29T04:52:30;96040.72;;;1.40;72.63
12757;BME280;31601;48.042;12.240;2022-12-29T04:54:56;96051.78;;;1.52;72.55
12757;BME280;31601;48.042;12.240;2022-12-29T04:57:24;96028.94;;;1.57;72.42
12757;BME280;31601;48.042;12.240;2022-12-29T04:59:51;96041.06;;;1.76;72.33
12757;BME280;31601;48.042;12.240;2022-12-29T05:02:17;96030.63;;;1.87;72.14
12757;BME280;31601;48.042;12.240;2022-12-29T05:04:44;96031.03;;;1.92;71.94
12757;BME280;31601;48.042;12.240;2022-12-29T05:07:11;96031.56;;;1.86;71.60
12757;BME280;31601;48.042;12.240;2022-12-29T05:09:37;96038.09;;;1.81;71.43
12757;BME280;31601;48.042;12.240;2022-12-29T05:12:04;96052.41;;;1.85;71.61
12757;BME280;31601;48.042;12.240;2022-12-29T05:14:32;96032.91;;;1.81;71.85
12757;BME280;31601;48.042;12.240;2022-12-29T05:16:59;96055.44;;;2.00;71.28
12757;BME280;31601;48.042;12.240;2022-12-29T05:19:25;96035.41;;;2.11;71.22
12757;BME280;31601;48.042;12.240;2022-12-29T05:21:52;96036.47;;;1.99;71.22
12757;BME280;31601;48.042;12.240;2022-12-29T05:24:19;96035.00;;;2.06;71.32
12757;BME280;31601;48.042;12.240;2022-12-29T05:26:46;96035.97;;;2.15;71.17
12757;BME280;31601;48.042;12.240;2022-12-29T05:29:12;96023.41;;;2.01;71.32
12757;BME280;31601;48.042;12.240;2022-12-29T05:31:40;96036.22;;;2.22;70.82
12757;BME280;31601;48.042;12.240;2022-12-29T05:34:06;96038.13;;;2.20;70.81
12757;BME280;31601;48.042;12.240;2022-12-29T05:36:33;96020.97;;;2.19;70.43
12757;BME280;31601;48.042;12.240;2022-12-29T05:38:59;96034.44;;;2.22;70.44
12757;BME280;31601;48.042;12.240;2022-12-29T05:41:26;96018.94;;;2.03;70.95
12757;BME280;31601;48.042;12.240;2022-12-29T05:43:52;96019.59;;;2.05;71.22
12757;BME280;31601;48.042;12.240;2022-12-29T05:46:18;96016.59;;;2.09;71.11
12757;BME280;31601;48.042;12.240;2022-12-29T05:48:46;96014.81;;;2.10;71.24
12757;BME280;31601;48.042;12.240;2022-12-29T05:51:13;96025.34;;;2.18;71.02
12757;BME280;31601;48.042;12.240;2022-12-29T05:53:39;96024.78;;;2.34;71.02
12757;BME280;31601;48.042;12.240;2022-12-29T05:56:06;96019.03;;;2.40;70.69
12757;BME280;31601;48.042;12.240;2022-12-29T05:58:32;96026.66;;;2.42;70.42
12757;BME280;31601;48.042;12.240;2022-12-29T06:00:59;96025.84;;;2.51;70.51
12757;BME280;31601;48.042;12.240;2022-12-29T06:03:25;96029.53;;;2.48;70.51
12757;BME280;31601;48.042;12.240;2022-12-29T06:05:53;96029.38;;;2.50;70.51
12757;BME280;31601;48.042;12.240;2022-12-29T06:08:19;96025.16;;;2.59;70.66
12757;BME280;31601;48.042;12.240;2022-12-29T06:10:46;96029.38;;;2.60;70.50
12757;BME280;31601;48.042;12.240;2022-12-29T06:13:12;96030.84;;;2.62;70.65
12757;BME280;31601;48.042;12.240;2022-12-29T06:15:39;96019.53;;;2.73;70.34
12757;BME280;31601;48.042;12.240;2022-12-29T06:18:05;96010.84;;;2.64;70.79
12757;BME280;31601;48.042;12.240;2022-12-29T06:20:31;96021.03;;;2.76;70.65
12757;BME280;31601;48.042;12.240;2022-12-29T06:22:59;96022.25;;;2.72;70.57
12757;BME280;31601;48.042;12.240;2022-12-29T06:25:26;96020.34;;;2.74;70.67
12757;BME280;31601;48.042;12.240;2022-12-29T06:27:53;96002.78;;;2.67;70.88
12757;BME280;31601;48.042;12.240;2022-12-29T06:30:21;96006.72;;;2.72;70.96
12757;BME280;31601;48.042;12.240;2022-12-29T06:32:47;95995.69;;;2.69;70.99
12757;BME280;31601;48.042;12.240;2022-12-29T06:35:14;95998.53;;;2.76;70.64
12757;BME280;31601;48.042;12.240;2022-12-29T06:37:40;96012.16;;;2.68;70.64
12757;BME280;31601;48.042;12.240;2022-12-29T06:40:09;96004.44;;;2.59;70.59
12757;BME280;31601;48.042;12.240;2022-12-29T06:42:36;95999.13;;;2.60;70.74
12757;BME280;31601;48.042;12.240;2022-12-29T06:45:04;96004.41;;;2.68;70.70
12757;BME280;31601;48.042;12.240;2022-12-29T06:47:30;96018.88;;;2.51;70.96
12757;BME280;31601;48.042;12.240;2022-12-29T06:49:57;96011.13;;;2.61;70.63
12757;BME280;31601;48.042;12.240;2022-12-29T06:52:23;96015.75;;;2.67;70.37
12757;BME280;31601;48.042;12.240;2022-12-29T06:54:50;96027.75;;;2.59;71.21
12757;BME280;31601;48.042;12.240;2022-12-29T06:57:17;96009.44;;;2.70;70.46
12757;BME280;31601;48.042;12.240;2022-12-29T06:59:44;96023.63;;;2.76;70.64
12757;BME280;31601;48.042;12.240;2022-12-29T07:02:11;96007.13;;;2.77;70.45
12757;BME280;31601;48.042;12.240;2022-12-29T07:04:39;96014.38;;;2.63;70.71
12757;BME280;31601;48.042;12.240;2022-12-29T07:07:05;96023.09;;;2.72;70.89
12757;BME280;31601;48.042;12.240;2022-12-29T07:09:32;96030.19;;;2.60;71.20
12757;BME280;31601;48.042;12.240;2022-12-29T07:11:58;96039.75;;;2.60;71.22
12757;BME280;31601;48.042;12.240;2022-12-29T07:14:26;96041.09;;;2.74;70.92
12757;BME280;31601;48.042;12.240;2022-12-29T07:16:53;96025.56;;;2.54;71.35
12757;BME280;31601;48.042;12.240;2022-12-29T07:19:19;96028.69;;;2.67;71.02
12757;BME280;31601;48.042;12.240;2022-12-29T07:21:46;96032.84;;;2.88;70.84
12757;BME280;31601;48.042;12.240;2022-12-29T07:24:12;96027.91;;;2.95;70.61
12757;BME280;31601;48.042;12.240;2022-12-29T07:26:39;96039.09;;;3.05;70.40
12757;BME280;31601;48.042;12.240;2022-12-29T07:29:06;96042.19;;;3.09;70.64
12757;BME280;31601;48.042;12.240;2022-12-29T07:31:34;96041.91;;;3.12;70.44
12757;BME280;31601;48.042;12.240;2022-12-29T07:34:00;96054.44;;;3.26;70.17
12757;BME280;31601;48.042;12.240;2022-12-29T07:36:26;96049.63;;;3.31;69.79
12757;BME280;31601;48.042;12.240;2022-12-29T07:38:53;96048.53;;;3.34;69.80
12757;BME280;31601;48.042;12.240;2022-12-29T07:41:19;96064.81;;;3.16;70.58
12757;BME280;31601;48.042;12.240;2022-12-29T07:43:46;96058.88;;;3.06;70.83
12757;BME280;31601;48.042;12.240;2022-12-29T07:46:14;96061.66;;;3.32;70.12
12757;BME280;31601;48.042;12.240;2022-12-29T07:48:42;96064.34;;;3.40;69.92
12757;BME280;31601;48.042;12.240;2022-12-29T07:51:08;96057.63;;;3.48;69.69
12757;BME280;31601;48.042;12.240;2022-12-29T07:53:35;96065.84;;;3.43;69.80
12757;BME280;31601;48.042;12.240;2022-12-29T07:56:01;96053.72;;;3.62;69.58
12757;BME280;31601;48.042;12.240;2022-12-29T07:58:27;96049.72;;;3.67;69.39
12757;BME280;31601;48.042;12.240;2022-12-29T08:00:54;96061.06;;;3.66;69.63
12757;BME280;31601;48.042;12.240;2022-12-29T08:03:20;96060.34;;;3.74;69.65
12757;BME280;31601;48.042;12.240;2022-12-29T08:05:48;96065.63;;;3.82;69.07
12757;BME280;31601;48.042;12.240;2022-12-29T08:08:15;96069.13;;;3.91;68.85
12757;BME280;31601;48.042;12.240;2022-12-29T08:10:41;96066.91;;;3.96;68.84
12757;BME280;31601;48.042;12.240;2022-12-29T08:13:07;96072.09;;;3.96;69.35
12757;BME280;31601;48.042;12.240;2022-12-29T08:15:34;96078.81;;;3.89;69.26
12757;BME280;31601;48.042;12.240;2022-12-29T08:18:00;96074.41;;;3.99;68.85
12757;BME280;31601;48.042;12.240;2022-12-29T08:20:27;96090.03;;;3.89;68.95
12757;BME280;31601;48.042;12.240;2022-12-29T08:22:54;96102.59;;;3.94;68.93
12757;BME280;31601;48.042;12.240;2022-12-29T08:25:21;96092.69;;;4.25;68.21
12757;BME280;31601;48.042;12.240;2022-12-29T08:27:47;96093.84;;;4.49;67.83
12757;BME280;31601;48.042;12.240;2022-12-29T08:30:14;96094.59;;;4.41;67.36
12757;BME280;31601;48.042;12.240;2022-12-29T08:32:41;96088.22;;;4.54;67.61
12757;BME280;31601;48.042;12.240;2022-12-29T08:35:08;96087.69;;;4.68;67.08
12757;BME280;31601;48.042;12.240;2022-12-29T08:37:35;96090.50;;;4.75;67.17
12757;BME280;31601;48.042;12.240;2022-12-29T08:40:03;96087.75;;;4.76;66.81
12757;BME280;31601;48.042;12.240;2022-12-29T08:42:30;96085.31;;;4.57;66.79
12757;BME280;31601;48.042;12.240;2022-12-29T08:44:57;96086.00;;;4.59;66.71
12757;BME280;31601;48.042;12.240;2022-12-29T08:47:23;96073.53;;;4.26;67.39
12757;BME280;31601;48.042;12.240;2022-12-29T08:49:50;96086.66;;;4.25;67.46
12757;BME280;31601;48.042;12.240;2022-12-29T08:52:17;96086.22;;;4.11;68.05
12757;BME280;31601;48.042;12.240;2022-12-29T08:54:43;96091.19;;;4.23;68.26
12757;BME280;31601;48.042;12.240;2022-12-29T08:57:11;96091.34;;;4.39;67.42
12757;BME280;31601;48.042;12.240;2022-12-29T08:59:37;96089.09;;;4.44;67.38
12757;BME280;31601;48.042;12.240;2022-12-29T09:02:04;96088.16;;;4.45;67.03
12757;BME280;31601;48.042;12.240;2022-12-29T09:04:30;96083.31;;;4.51;66.97
12757;BME280;31601;48.042;12.240;2022-12-29T09:06:57;96069.75;;;4.39;68.13
12757;BME280;31601;48.042;12.240;2022-12-29T09:09:23;96074.78;;;4.58;68.12
12757;BME280;31601;48.042;12.240;2022-12-29T09:11:50;96069.50;;;4.68;67.84
12757;BME280;31601;48.042;12.240;2022-12-29T09:14:17;96071.25;;;4.86;67.76
12757;BME280;31601;48.042;12.240;2022-12-29T09:16:44;96062.38;;;4.96;67.31
12757;BME280;31601;48.042;12.240;2022-12-29T09:19:28;96078.72;;;5.07;67.19
12757;BME280;31601;48.042;12.240;2022-12-29T09:21:55;96077.47;;;5.19;66.71
12757;BME280;31601;48.042;12.240;2022-12-29T09:24:21;96073.69;;;5.13;66.99
12757;BME280;31601;48.042;12.240;2022-12-29T09:26:47;96079.66;;;5.32;66.71
12757;BME280;31601;48.042;12.240;2022-12-29T09:29:14;96082.22;;;5.58;65.98
12757;BME280;31601;48.042;12.240;2022-12-29T09:31:42;96074.94;;;5.70;65.36
12757;BME280;31601;48.042;12.240;2022-12-29T09:34:08;96085.41;;;5.86;65.29
12757;BME280;31601;48.042;12.240;2022-12-29T09:36:35;96069.47;;;5.81;64.72
12757;BME280;31601;48.042;12.240;2022-12-29T09:39:01;96069.25;;;6.09;64.63
12757;BME280;31601;48.042;12.240;2022-12-29T09:41:32;96069.56;;;6.22;64.46
12757;BME280;31601;48.042;12.240;2022-12-29T09:44:11;96066.19;;;6.38;63.96
12757;BME280;31601;48.042;12.240;2022-12-29T09:46:40;96068.47;;;6.50;63.23
12757;BME280;31601;48.042;12.240;2022-12-29T09:49:18;96066.03;;;6.56;63.22
12757;BME280;31601;48.042;12.240;2022-12-29T09:51:50;96072.72;;;6.59;62.19
12757;BME280;31601;48.042;12.240;2022-12-29T09:54:32;96066.34;;;6.70;61.64
12757;BME280;31601;48.042;12.240;2022-12-29T09:57:00;96066.50;;;6.76;61.00
12757;BME280;31601;48.042;12.240;2022-12-29T09:59:35;96049.91;;;6.77;60.44
12757;BME280;31601;48.042;12.240;2022-12-29T10:02:13;96050.88;;;6.76;60.05
12757;BME280;31601;48.042;12.240;2022-12-29T10:04:44;96060.50;;;6.92;59.84
12757;BME280;31601;48.042;12.240;2022-12-29T10:07:17;96052.31;;;7.04;59.42
12757;BME280;31601;48.042;12.240;2022-12-29T10:09:56;96042.34;;;7.15;59.52
12757;BME280;31601;48.042;12.240;2022-12-29T10:12:32;96045.22;;;7.29;59.02
12757;BME280;31601;48.042;12.240;2022-12-29T10:15:13;96043.22;;;7.47;58.82
12757;BME280;31601;48.042;12.240;2022-12-29T10:17:48;96047.59;;;7.55;58.49
12757;BME280;31601;48.042;12.240;2022-12-29T10:20:28;96050.16;;;7.71;58.39
12757;BME280;31601;48.042;12.240;2022-12-29T10:23:09;96053.53;;;7.80;58.18
12757;BME280;31601;48.042;12.240;2022-12-29T10:25:41;96049.56;;;7.93;58.38
12757;BME280;31601;48.042;12.240;2022-12-29T10:28:17;96042.53;;;7.93;57.87
12757;BME280;31601;48.042;12.240;2022-12-29T10:30:45;96041.56;;;7.86;57.98
12757;BME280;31601;48.042;12.240;2022-12-29T10:33:17;96048.16;;;7.82;57.76
12757;BME280;31601;48.042;12.240;2022-12-29T10:35:47;96045.66;;;7.88;57.90
12757;BME280;31601;48.042;12.240;2022-12-29T10:38:20;96029.94;;;7.97;57.74
12757;BME280;31601;48.042;12.240;2022-12-29T10:40:51;96028.72;;;8.07;57.15
12757;BME280;31601;48.042;12.240;2022-12-29T10:43:25;96033.06;;;8.23;56.83
12757;BME280;31601;48.042;12.240;2022-12-29T10:45:52;96034.09;;;8.37;56.70
12757;BME280;31601;48.042;12.240;2022-12-29T10:48:21;96021.25;;;8.51;56.32
12757;BME280;31601;48.042;12.240;2022-12-29T10:50:53;96022.13;;;8.66;56.09
12757;BME280;31601;48.042;12.240;2022-12-29T10:53:23;96016.13;;;8.81;55.96
12757;BME280;31601;48.042;12.240;2022-12-29T10:55:52;96016.13;;;8.95;55.59
12757;BME280;31601;48.042;12.240;2022-12-29T10:58:19;96013.34;;;9.12;55.25
12757;BME280;31601;48.042;12.240;2022-12-29T11:00:49;96014.81;;;9.14;54.60
12757;BME280;31601;48.042;12.240;2022-12-29T11:03:39;96007.84;;;9.22;54.27
12757;BME280;31601;48.042;12.240;2022-12-29T11:06:10;96004.41;;;9.21;54.17
12757;BME280;31601;48.042;12.240;2022-12-29T11:08:46;96008.66;;;9.37;54.07
12757;BME280;31601;48.042;12.240;2022-12-29T11:11:22;95997.75;;;9.48;53.93
12757;BME280;31601;48.042;12.240;2022-12-29T11:13:56;95993.38;;;9.56;53.37
12757;BME280;31601;48.042;12.240;2022-12-29T11:16:28;95998.19;;;9.37;53.31
12757;BME280;31601;48.042;12.240;2022-12-29T11:18:56;96001.88;;;9.43;53.24
12757;BME280;31601;48.042;12.240;2022-12-29T11:21:31;96002.06;;;9.41;53.41
12757;BME280;31601;48.042;12.240;2022-12-29T11:23:59;96004.13;;;9.31;53.80
12757;BME280;31601;48.042;12.240;2022-12-29T11:26:27;96000.47;;;9.25;54.08
12757;BME280;31601;48.042;12.240;2022-12-29T11:29:16;95997.56;;;9.20;54.19
12757;BME280;31601;48.042;12.240;2022-12-29T11:31:45;95990.97;;;9.09;54.31
12757;BME280;31601;48.042;12.240;2022-12-29T11:34:17;95979.88;;;9.07;54.28
12757;BME280;31601;48.042;12.240;2022-12-29T11:36:46;95985.03;;;9.01;54.49
12757;BME280;31601;48.042;12.240;2022-12-29T11:39:32;95989.44;;;9.15;54.02
12757;BME280;31601;48.042;12.240;2022-12-29T11:41:59;95988.72;;;9.21;54.11
12757;BME280;31601;48.042;12.240;2022-12-29T11:44:31;95977.78;;;9.32;53.58
12757;BME280;31601;48.042;12.240;2022-12-29T11:47:01;95979.59;;;9.32;53.38
12757;BME280;31601;48.042;12.240;2022-12-29T11:49:27;95969.94;;;9.32;53.21
12757;BME280;31601;48.042;12.240;2022-12-29T11:51:55;95964.63;;;9.26;53.34
12757;BME280;31601;48.042;12.240;2022-12-29T11:54:25;95959.38;;;9.26;53.40
12757;BME280;31601;48.042;12.240;2022-12-29T11:56:53;95952.78;;;9.30;53.54
12757;BME280;31601;48.042;12.240;2022-12-29T11:59:41;95956.03;;;9.32;54.00
12757;BME280;31601;48.042;12.240;2022-12-29T12:02:26;95948.00;;;9.34;54.13
12757;BME280;31601;48.042;12.240;2022-12-29T12:05:02;95939.16;;;9.20;54.88
12757;BME280;31601;48.042;12.240;2022-12-29T12:07:37;95961.72;;;9.06;55.47
12757;BME280;31601;48.042;12.240;2022-12-29T12:10:06;95942.88;;;9.25;56.59
12757;BME280;31601;48.042;12.240;2022-12-29T12:12:35;95941.13;;;9.47;56.04
12757;BME280;31601;48.042;12.240;2022-12-29T12:15:05;95956.38;;;9.44;55.60
12757;BME280;31601;48.042;12.240;2022-12-29T12:17:38;95945.25;;;9.57;55.36
12757;BME280;31601;48.042;12.240;2022-12-29T12:20:16;95941.66;;;9.58;55.06
12757;BME280;31601;48.042;12.240;2022-12-29T12:22:55;95936.66;;;9.63;54.81
12757;BME280;31601;48.042;12.240;2022-12-29T12:25:29;95925.94;;;9.58;54.28
12757;BME280;31601;48.042;12.240;2022-12-29T12:28:00;95923.94;;;9.60;54.43
12757;BME280;31601;48.042;12.240;2022-12-29T12:30:36;95926.28;;;9.55;54.30
12757;BME280;31601;48.042;12.240;2022-12-29T12:33:13;95919.06;;;9.57;53.96
12757;BME280;31601;48.042;12.240;2022-12-29T12:35:45;95926.66;;;9.52;53.93
12757;BME280;31601;48.042;12.240;2022-12-29T12:38:26;95916.19;;;9.52;54.45
12757;BME280;31601;48.042;12.240;2022-12-29T12:41:05;95917.06;;;9.59;55.12
12757;BME280;31601;48.042;12.240;2022-12-29T12:43:39;95893.84;;;9.56;55.48
12757;BME280;31601;48.042;12.240;2022-12-29T12:46:17;95900.84;;;9.48;55.95
12757;BME280;31601;48.042;12.240;2022-12-29T12:48:57;95909.00;;;9.60;55.65
12757;BME280;31601;48.042;12.240;2022-12-29T12:51:33;95906.22;;;9.62;55.75
12757;BME280;31601;48.042;12.240;2022-12-29T12:54:19;95902.25;;;9.51;56.18
12757;BME280;31601;48.042;12.240;2022-12-29T12:56:58;95901.63;;;9.64;54.76
12757;BME280;31601;48.042;12.240;2022-12-29T12:59:38;95914.25;;;9.60;54.74
12757;BME280;31601;48.042;12.240;2022-12-29T13:02:20;95894.63;;;9.71;54.61
12757;BME280;31601;48.042;12.240;2022-12-29T13:05:02;95896.19;;;9.65;55.29
12757;BME280;31601;48.042;12.240;2022-12-29T13:07:40;95894.19;;;9.67;54.53
12757;BME280;31601;48.042;12.240;2022-12-29T13:10:25;95901.53;;;9.79;54.35
12757;BME280;31601;48.042;12.240;2022-12-29T13:13:13;95902.44;;;9.86;54.34
12757;BME280;31601;48.042;12.240;2022-12-29T13:15:49;95905.94;;;9.93;54.58
12757;BME280;31601;48.042;12.240;2022-12-29T13:18:25;95907.72;;;9.93;54.64
12757;BME280;31601;48.042;12.240;2022-12-29T13:20:59;95900.88;;;9.92;54.73